Time;durP1;ratioP1;P1;durP2;ratioP2;P2;SDS_P1;SDS_P2;PMS_P1;PMS_P2;Temp;Humidity;BMP_temperature;BMP_pressure;BME280_temperature;BME280_humidity;BME280_pressure;Samples;Min_cycle;Max_cycle;Signal;HPM_P1;HPM_P2
2023/03/24 00:01:36;;;;;;;;;;;;;;;;;;4423044;32;19937;-79
2023/03/24 00:04:02;;;;;;;;;;;;;;;;;;4422601;32;19978;-78
2023/03/24 00:06:27;;;;;;;;;;;;;;;;;;4424120;32;20302;-78
2023/03/24 00:08:53;;;;;;;;;;;;;;;;;;4422849;32;20325;-79
2023/03/24 00:11:19;;;;;;;;;;;;;;;;;;4423859;32;19930;-79
2023/03/24 00:13:46;;;;;;;;;;;;;;;;;;4422728;32;19985;-79
2023/03/24 00:16:11;;;;;;;;;;;;;;;;;;4422549;32;20383;-79
2023/03/24 00:18:36;;;;;;;;;;;;;;;;;;4422635;32;20360;-80
2023/03/24 00:21:01;;;;;;;;;;;;;;;;;;4422592;32;20326;-79
2023/03/24 00:23:26;;;;;;;;;;;;;;;;;;4425115;32;20023;-81
2023/03/24 00:25:52;;;;;;;;;;;;;;;;;;4424013;32;19937;-79
2023/03/24 00:28:17;;;;;;;;;;;;;;;;;;4424327;32;19929;-80
2023/03/24 00:30:50;;;;;;;;;;;;;;;;;;4429097;32;19980;-80
2023/03/24 00:33:15;;;;;;;;;;;;;;;;;;4435641;32;19945;-80
2023/03/24 00:35:43;;;;;;;;;;;;;;;;;;4433514;32;19948;-80
2023/03/24 00:38:09;;;;;;;;;;;;;;;;;;4430883;32;19934;-80
2023/03/24 00:40:34;;;;;;;;;;;;;;;;;;4427606;32;19966;-79
2023/03/24 00:43:00;;;;;;;;;;;;;;;;;;4426546;32;19945;-79
2023/03/24 00:45:25;;;;;;;;;;;;;;;;;;4424142;32;20295;-78
2023/03/24 00:47:52;;;;;;;;;;;;;;;;;;4423466;32;19971;-77
2023/03/24 00:50:19;;;;;;;;;;;;;;;;;;4423129;32;19948;-79
2023/03/24 00:52:46;;;;;;;;;;;;;;;;;;4422631;32;19929;-77
2023/03/24 00:55:16;;;;;;;;;;;;;;;;;;4424155;32;19993;-79
2023/03/24 00:57:48;;;;;;;;;;;;;;;;;;4424940;32;19952;-78
2023/03/24 01:00:18;;;;;;;;;;;;;;;;;;4424622;32;19976;-78
2023/03/24 01:02:45;;;;;;;;;;;;;;;;;;4427760;32;19979;-78
2023/03/24 01:05:10;;;;;;;;;;;;;;;;;;4435293;32;19930;-79
2023/03/24 01:07:35;;;;;;;;;;;;;;;;;;4429865;32;19970;-79
2023/03/24 01:10:01;;;;;;;;;;;;;;;;;;4424406;32;19932;-79
2023/03/24 01:12:27;;;;;;;;;;;;;;;;;;4423466;32;19946;-78
2023/03/24 01:14:52;;;;;;;;;;;;;;;;;;4424837;32;19929;-79
2023/03/24 01:17:18;;;;;;;;;;;;;;;;;;4426887;32;19933;-79
2023/03/24 01:19:43;;;;;;;;;;;;;;;;;;4422664;32;20322;-78
2023/03/24 01:22:08;;;;;;;;;;;;;;;;;;4423108;32;19967;-78
2023/03/24 01:24:33;;;;;;;;;;;;;;;;;;4421760;32;20346;-78
2023/03/24 01:26:59;;;;;;;;;;;;;;;;;;4423457;32;19945;-76
2023/03/24 01:29:24;;;;;;;;;;;;;;;;;;4423377;32;19992;-77
2023/03/24 01:31:49;;;;;;;;;;;;;;;;;;4424389;32;19947;-77
2023/03/24 01:34:14;;;;;;;;;;;;;;;;;;4424644;32;20333;-77
2023/03/24 01:36:39;;;;;;;;;;;;;;;;;;4425461;32;19989;-78
2023/03/24 01:39:05;;;;;;;;;;;;;;;;;;4428844;32;19947;-78
2023/03/24 01:41:30;;;;;;;;;;;;;;;;;;4423045;32;19959;-79
2023/03/24 01:43:55;;;;;;;;;;;;;;;;;;4422479;32;19945;-78
2023/03/24 01:46:22;;;;;;;;;;;;;;;;;;4424446;32;19938;-78
2023/03/24 01:48:47;;;;;;;;;;;;;;;;;;4423180;32;19957;-76
2023/03/24 01:51:12;;;;;;;;;;;;;;;;;;4407942;32;19937;-76
2023/03/24 01:53:37;;;;;;;;;;;;;;;;;;4416693;32;19945;-79
2023/03/24 01:56:02;;;;;;;;;;;;;;;;;;4423447;32;19937;-77
2023/03/24 01:58:27;;;;;;;;;;;;;;;;;;4422432;32;19937;-79
2023/03/24 02:00:53;;;;;;;;;;;;;;;;;;4424294;32;19933;-80
2023/03/24 02:03:19;;;;;;;;;;;;;;;;;;4437495;32;19936;-78
2023/03/24 02:05:44;;;;;;;;;;;;;;;;;;4453338;32;20253;-79
2023/03/24 02:08:10;;;;;;;;;;;;;;;;;;4454178;32;19945;-78
2023/03/24 02:10:35;;;;;;;;;;;;;;;;;;4454245;32;19940;-78
2023/03/24 02:13:00;;;;;;;;;;;;;;;;;;4454242;32;19992;-79
2023/03/24 02:15:26;;;;;;;;;;;;;;;;;;4454013;32;19945;-78
2023/03/24 02:17:53;;;;;;;;;;;;;;;;;;4438959;32;19950;-77
2023/03/24 02:20:18;;;;;;;;;;;;;;;;;;4439354;32;19949;-77
2023/03/24 02:22:43;;;;;;;;;;;;;;;;;;4438914;32;19990;-77
2023/03/24 02:25:08;;;;;;;;;;;;;;;;;;4453260;32;19932;-77
2023/03/24 02:27:33;;;;;;;;;;;;;;;;;;4453395;32;19986;-76
2023/03/24 02:29:58;;;;;;;;;;;;;;;;;;4452784;32;19936;-77
2023/03/24 02:32:23;;;;;;;;;;;;;;;;;;4452989;32;20019;-75
2023/03/24 02:34:49;;;;;;;;;;;;;;;;;;4453331;32;19948;-75
2023/03/24 02:37:17;;;;;;;;;;;;;;;;;;4438901;32;19978;-75
2023/03/24 02:39:42;;;;;;;;;;;;;;;;;;4438591;32;19943;-76
2023/03/24 02:42:07;;;;;;;;;;;;;;;;;;4452634;32;19932;-74
2023/03/24 02:44:32;;;;;;;;;;;;;;;;;;4438772;32;20321;-76
2023/03/24 02:46:57;;;;;;;;;;;;;;;;;;4452792;32;19952;-75
2023/03/24 02:49:23;;;;;;;;;;;;;;;;;;4430050;32;19941;-76
2023/03/24 02:51:48;;;;;;;;;;;;;;;;;;4407696;32;19929;-77
2023/03/24 02:54:13;;;;;;;;;;;;;;;;;;4418211;32;19984;-76
2023/03/24 02:56:38;;;;;;;;;;;;;;;;;;4423399;32;19992;-77
2023/03/24 02:59:03;;;;;;;;;;;;;;;;;;4422818;32;19974;-76
2023/03/24 03:01:32;;;;;;;;;;;;;;;;;;4423283;32;19944;-78
2023/03/24 03:03:57;;;;;;;;;;;;;;;;;;4422474;32;19973;-76
2023/03/24 03:06:22;;;;;;;;;;;;;;;;;;4437313;32;19936;-75
2023/03/24 03:08:47;;;;;;;;;;;;;;;;;;4423146;32;19960;-76
2023/03/24 03:11:12;;;;;;;;;;;;;;;;;;4426414;32;20293;-75
2023/03/24 03:13:37;;;;;;;;;;;;;;;;;;4426159;32;19956;-75
2023/03/24 03:16:02;;;;;;;;;;;;;;;;;;4439313;32;19941;-76
2023/03/24 03:18:29;;;;;;;;;;;;;;;;;;4424532;32;20269;-77
2023/03/24 03:20:54;;;;;;;;;;;;;;;;;;4424753;32;19940;-77
2023/03/24 03:23:19;;;;;;;;;;;;;;;;;;4427595;32;19969;-76
2023/03/24 03:25:45;;;;;;;;;;;;;;;;;;4428288;32;19952;-75
2023/03/24 03:28:10;;;;;;;;;;;;;;;;;;4428498;32;19929;-77
2023/03/24 03:30:36;;;;;;;;;;;;;;;;;;4426045;32;19953;-76
2023/03/24 03:33:02;;;;;;;;;;;;;;;;;;4422964;32;19928;-76
2023/03/24 03:35:27;;;;;;;;;;;;;;;;;;4422534;32;19965;-76
2023/03/24 03:37:52;;;;;;;;;;;;;;;;;;4422431;32;19966;-76
2023/03/24 03:40:17;;;;;;;;;;;;;;;;;;4436641;32;20281;-76
2023/03/24 03:42:42;;;;;;;;;;;;;;;;;;4422684;32;19948;-76
2023/03/24 03:45:08;;;;;;;;;;;;;;;;;;4422743;32;19948;-76
2023/03/24 03:47:34;;;;;;;;;;;;;;;;;;4422250;32;19979;-76
2023/03/24 03:49:59;;;;;;;;;;;;;;;;;;4436491;32;19960;-75
2023/03/24 03:52:24;;;;;;;;;;;;;;;;;;4436358;32;19945;-76
2023/03/24 03:54:50;;;;;;;;;;;;;;;;;;4422208;32;19984;-76
2023/03/24 03:57:15;;;;;;;;;;;;;;;;;;4437113;32;19933;-77
2023/03/24 03:59:40;;;;;;;;;;;;;;;;;;4423566;32;19936;-76
2023/03/24 04:02:05;;;;;;;;;;;;;;;;;;4422331;32;19941;-77
2023/03/24 04:04:32;;;;;;;;;;;;;;;;;;4419401;32;19947;-76
2023/03/24 04:06:57;;;;;;;;;;;;;;;;;;4419994;32;19929;-77
2023/03/24 04:09:23;;;;;;;;;;;;;;;;;;4421644;32;19933;-76
2023/03/24 04:11:48;;;;;;;;;;;;;;;;;;4419805;32;19940;-75
2023/03/24 04:14:13;;;;;;;;;;;;;;;;;;4421402;32;19942;-77
2023/03/24 04:16:38;;;;;;;;;;;;;;;;;;4419549;32;19936;-77
2023/03/24 04:19:03;;;;;;;;;;;;;;;;;;4421436;32;20290;-76
2023/03/24 04:21:32;;;;;;;;;;;;;;;;;;4422078;32;20258;-77
2023/03/24 04:23:57;;;;;;;;;;;;;;;;;;4421086;32;19986;-74
2023/03/24 04:26:25;;;;;;;;;;;;;;;;;;4421071;32;19941;-76
2023/03/24 04:28:51;;;;;;;;;;;;;;;;;;4419663;32;19944;-77
2023/03/24 04:31:17;;;;;;;;;;;;;;;;;;4421635;32;19972;-76
2023/03/24 04:33:42;;;;;;;;;;;;;;;;;;4419613;32;20265;-76
2023/03/24 04:36:17;;;;;;;;;;;;;;;;;;4420663;32;20316;-76
2023/03/24 04:38:44;;;;;;;;;;;;;;;;;;4420952;32;19933;-76
2023/03/24 04:41:09;;;;;;;;;;;;;;;;;;4420331;32;19937;-76
2023/03/24 04:43:35;;;;;;;;;;;;;;;;;;4420854;32;19937;-76
2023/03/24 04:46:00;;;;;;;;;;;;;;;;;;4420113;32;19952;-75
2023/03/24 04:48:25;;;;;;;;;;;;;;;;;;4421811;32;19938;-76
2023/03/24 04:50:50;;;;;;;;;;;;;;;;;;4422920;32;19933;-77
2023/03/24 04:53:16;;;;;;;;;;;;;;;;;;4421805;32;19937;-76
2023/03/24 04:55:41;;;;;;;;;;;;;;;;;;4423683;32;19967;-77
2023/03/24 04:58:07;;;;;;;;;;;;;;;;;;4422936;32;19933;-76
2023/03/24 05:00:32;;;;;;;;;;;;;;;;;;4423208;32;20250;-76
2023/03/24 05:02:57;;;;;;;;;;;;;;;;;;4427702;32;19941;-76
2023/03/24 05:05:22;;;;;;;;;;;;;;;;;;4439905;32;19988;-75
2023/03/24 05:07:48;;;;;;;;;;;;;;;;;;4440477;32;19940;-76
2023/03/24 05:10:13;;;;;;;;;;;;;;;;;;4439538;32;19964;-76
2023/03/24 05:12:38;;;;;;;;;;;;;;;;;;4440848;32;19971;-75
2023/03/24 05:15:03;;;;;;;;;;;;;;;;;;4454704;32;20282;-76
2023/03/24 05:17:28;;;;;;;;;;;;;;;;;;4458922;32;19936;-76
2023/03/24 05:19:53;;;;;;;;;;;;;;;;;;4448760;32;19979;-76
2023/03/24 05:22:18;;;;;;;;;;;;;;;;;;4446637;32;19951;-76
2023/03/24 05:24:43;;;;;;;;;;;;;;;;;;4442952;32;19980;-75
2023/03/24 05:27:08;;;;;;;;;;;;;;;;;;4455719;32;19940;-76
2023/03/24 05:29:34;;;;;;;;;;;;;;;;;;4440017;32;19972;-76
2023/03/24 05:31:59;;;;;;;;;;;;;;;;;;4439135;32;19933;-77
2023/03/24 05:34:24;;;;;;;;;;;;;;;;;;4420882;32;19941;-77
2023/03/24 05:36:49;;;;;;;;;;;;;;;;;;4408779;32;19951;-77
2023/03/24 05:39:14;;;;;;;;;;;;;;;;;;4410962;32;19941;-76
2023/03/24 05:41:40;;;;;;;;;;;;;;;;;;4410054;32;19937;-76
2023/03/24 05:44:05;;;;;;;;;;;;;;;;;;4425927;32;19936;-76
2023/03/24 05:46:30;;;;;;;;;;;;;;;;;;4408789;32;19970;-77
2023/03/24 05:48:55;;;;;;;;;;;;;;;;;;4422888;32;19933;-76
2023/03/24 05:51:20;;;;;;;;;;;;;;;;;;4409300;32;19941;-77
2023/03/24 05:53:45;;;;;;;;;;;;;;;;;;4422461;32;19957;-76
2023/03/24 05:56:11;;;;;;;;;;;;;;;;;;4409499;32;19961;-75
2023/03/24 05:58:38;;;;;;;;;;;;;;;;;;4421566;32;19933;-77
2023/03/24 06:01:05;;;;;;;;;;;;;;;;;;4422285;32;19948;-76
2023/03/24 06:03:33;;;;;;;;;;;;;;;;;;4408356;32;20269;-76
2023/03/24 06:05:58;;;;;;;;;;;;;;;;;;4408972;32;19929;-75
2023/03/24 06:08:23;;;;;;;;;;;;;;;;;;4410384;32;19955;-75
2023/03/24 06:10:48;;;;;;;;;;;;;;;;;;4423925;32;19937;-75
2023/03/24 06:13:13;;;;;;;;;;;;;;;;;;4409095;32;19936;-76
2023/03/24 06:15:41;;;;;;;;;;;;;;;;;;4423419;32;19941;-76
2023/03/24 06:18:06;;;;;;;;;;;;;;;;;;4407973;32;19944;-75
2023/03/24 06:20:31;;;;;;;;;;;;;;;;;;4423560;32;19985;-75
2023/03/24 06:22:58;;;;;;;;;;;;;;;;;;4422104;32;19959;-74
2023/03/24 06:25:26;;;;;;;;;;;;;;;;;;4407913;32;19980;-77
2023/03/24 06:27:51;;;;;;;;;;;;;;;;;;4408710;32;19941;-76
2023/03/24 06:30:16;;;;;;;;;;;;;;;;;;4422030;32;20001;-76
2023/03/24 06:32:45;;;;;;;;;;;;;;;;;;4408492;32;19941;-76
2023/03/24 06:35:10;;;;;;;;;;;;;;;;;;4407591;32;20314;-77
2023/03/24 06:37:35;;;;;;;;;;;;;;;;;;4421683;32;20330;-77
2023/03/24 06:40:00;;;;;;;;;;;;;;;;;;4413484;32;20328;-76
2023/03/24 06:42:26;;;;;;;;;;;;;;;;;;4437682;32;19941;-75
2023/03/24 06:44:51;;;;;;;;;;;;;;;;;;4424506;32;19980;-75
2023/03/24 06:47:16;;;;;;;;;;;;;;;;;;4437096;32;20271;-76
2023/03/24 06:49:41;;;;;;;;;;;;;;;;;;4439999;32;19956;-75
2023/03/24 06:52:06;;;;;;;;;;;;;;;;;;4437616;32;19940;-75
2023/03/24 06:54:31;;;;;;;;;;;;;;;;;;4422641;32;19936;-76
2023/03/24 06:56:56;;;;;;;;;;;;;;;;;;4424131;32;19940;-77
2023/03/24 06:59:23;;;;;;;;;;;;;;;;;;4436659;32;19933;-76
2023/03/24 07:01:49;;;;;;;;;;;;;;;;;;4436580;32;19945;-74
2023/03/24 07:04:14;;;;;;;;;;;;;;;;;;4422639;32;19971;-75
2023/03/24 07:06:41;;;;;;;;;;;;;;;;;;4438363;32;20303;-76
2023/03/24 07:09:06;;;;;;;;;;;;;;;;;;4436539;32;19955;-76
2023/03/24 07:11:31;;;;;;;;;;;;;;;;;;4423221;32;19937;-76
2023/03/24 07:13:56;;;;;;;;;;;;;;;;;;4438572;32;19980;-76
2023/03/24 07:16:22;;;;;;;;;;;;;;;;;;4423400;32;19947;-76
2023/03/24 07:18:47;;;;;;;;;;;;;;;;;;4436516;32;19945;-78
2023/03/24 07:21:12;;;;;;;;;;;;;;;;;;4436245;32;19933;-76
2023/03/24 07:23:37;;;;;;;;;;;;;;;;;;4422910;32;19937;-76
2023/03/24 07:26:02;;;;;;;;;;;;;;;;;;4439500;32;20104;-77
2023/03/24 07:28:27;;;;;;;;;;;;;;;;;;4440702;32;19936;-76
2023/03/24 07:30:52;;;;;;;;;;;;;;;;;;4424082;32;19981;-77
2023/03/24 07:33:18;;;;;;;;;;;;;;;;;;4438579;32;20007;-76
2023/03/24 07:35:43;;;;;;;;;;;;;;;;;;4436404;32;20011;-77
2023/03/24 07:38:09;;;;;;;;;;;;;;;;;;4424107;32;19946;-77
2023/03/24 07:40:34;;;;;;;;;;;;;;;;;;4422577;32;19929;-76
2023/03/24 07:42:59;;;;;;;;;;;;;;;;;;4436984;32;19949;-76
2023/03/24 07:45:24;;;;;;;;;;;;;;;;;;4439525;32;19960;-76
2023/03/24 07:47:50;;;;;;;;;;;;;;;;;;4436561;32;20270;-77
2023/03/24 07:50:16;;;;;;;;;;;;;;;;;;4424437;32;19951;-77
2023/03/24 07:52:41;;;;;;;;;;;;;;;;;;4452497;32;19944;-77
2023/03/24 07:55:07;;;;;;;;;;;;;;;;;;4438614;32;19936;-75
2023/03/24 07:57:35;;;;;;;;;;;;;;;;;;4438334;32;19940;-75
2023/03/24 08:00:00;;;;;;;;;;;;;;;;;;4454220;32;19968;-75
2023/03/24 08:02:26;;;;;;;;;;;;;;;;;;4440118;32;19952;-74
2023/03/24 08:04:52;;;;;;;;;;;;;;;;;;4453137;32;20310;-77
2023/03/24 08:07:18;;;;;;;;;;;;;;;;;;4454231;32;20380;-77
2023/03/24 08:09:43;;;;;;;;;;;;;;;;;;4452742;32;20023;-78
2023/03/24 08:12:09;;;;;;;;;;;;;;;;;;4453174;32;19960;-77
2023/03/24 08:14:34;;;;;;;;;;;;;;;;;;4441124;32;20293;-76
2023/03/24 08:16:59;;;;;;;;;;;;;;;;;;4457326;32;19944;-77
2023/03/24 08:19:24;;;;;;;;;;;;;;;;;;4443312;32;19936;-77
2023/03/24 08:21:49;;;;;;;;;;;;;;;;;;4425098;32;19985;-77
2023/03/24 08:24:16;;;;;;;;;;;;;;;;;;4410933;32;20001;-77
2023/03/24 08:26:41;;;;;;;;;;;;;;;;;;4424640;32;19989;-78
2023/03/24 08:29:06;;;;;;;;;;;;;;;;;;4424002;32;19955;-78
2023/03/24 08:31:32;;;;;;;;;;;;;;;;;;4425187;32;19951;-78
2023/03/24 08:33:57;;;;;;;;;;;;;;;;;;4428456;32;19952;-77
2023/03/24 08:36:25;;;;;;;;;;;;;;;;;;4411145;32;19937;-78
2023/03/24 08:38:50;;;;;;;;;;;;;;;;;;4413067;32;19929;-76
2023/03/24 08:41:15;;;;;;;;;;;;;;;;;;4410971;32;20317;-76
2023/03/24 08:43:40;;;;;;;;;;;;;;;;;;4426266;32;19961;-77
2023/03/24 08:46:06;;;;;;;;;;;;;;;;;;4411219;32;19940;-77
2023/03/24 08:48:31;;;;;;;;;;;;;;;;;;4412100;32;19952;-77
2023/03/24 08:50:56;;;;;;;;;;;;;;;;;;4434846;32;19962;-75
2023/03/24 08:53:21;;;;;;;;;;;;;;;;;;4441008;32;19941;-75
2023/03/24 08:55:47;;;;;;;;;;;;;;;;;;4442882;32;19952;-75
2023/03/24 08:58:12;;;;;;;;;;;;;;;;;;4443655;32;19947;-73
2023/03/24 09:00:37;;;;;;;;;;;;;;;;;;4460060;32;19932;-76
2023/03/24 09:03:02;;;;;;;;;;;;;;;;;;4444366;32;19955;-77
2023/03/24 09:05:28;;;;;;;;;;;;;;;;;;4444184;32;19952;-77
2023/03/24 09:07:53;;;;;;;;;;;;;;;;;;4441953;32;19978;-75
2023/03/24 09:10:18;;;;;;;;;;;;;;;;;;4456830;32;19962;-75
2023/03/24 09:12:43;;;;;;;;;;;;;;;;;;4444705;32;20408;-78
2023/03/24 09:15:08;;;;;;;;;;;;;;;;;;4454915;32;19936;-77
2023/03/24 09:17:33;;;;;;;;;;;;;;;;;;4441779;32;19982;-77
2023/03/24 09:19:58;;;;;;;;;;;;;;;;;;4455897;32;19955;-76
2023/03/24 09:22:24;;;;;;;;;;;;;;;;;;4455958;32;20009;-78
2023/03/24 09:24:49;;;;;;;;;;;;;;;;;;4441024;32;20317;-79
2023/03/24 09:27:14;;;;;;;;;;;;;;;;;;4440779;32;19972;-78
2023/03/24 09:29:39;;;;;;;;;;;;;;;;;;4455141;32;19933;-78
2023/03/24 09:32:04;;;;;;;;;;;;;;;;;;4460303;32;19940;-78
2023/03/24 09:34:31;;;;;;;;;;;;;;;;;;4447552;32;20290;-75
2023/03/24 09:36:56;;;;;;;;;;;;;;;;;;4449256;32;19939;-77
2023/03/24 09:39:21;;;;;;;;;;;;;;;;;;4449673;32;19948;-78
2023/03/24 09:41:47;;;;;;;;;;;;;;;;;;4460398;32;19932;-79
2023/03/24 09:44:12;;;;;;;;;;;;;;;;;;4454962;32;19991;-78
2023/03/24 09:46:37;;;;;;;;;;;;;;;;;;4440171;32;19936;-78
2023/03/24 09:49:02;;;;;;;;;;;;;;;;;;4457578;32;19936;-77
2023/03/24 09:51:27;;;;;;;;;;;;;;;;;;4442757;32;19943;-78
2023/03/24 09:53:53;;;;;;;;;;;;;;;;;;4445719;32;20013;-77
2023/03/24 09:56:19;;;;;;;;;;;;;;;;;;4460150;32;19944;-78
2023/03/24 09:58:44;;;;;;;;;;;;;;;;;;4464013;32;19956;-79
2023/03/24 10:01:09;;;;;;;;;;;;;;;;;;4461593;32;19993;-73
2023/03/24 10:03:35;;;;;;;;;;;;;;;;;;4458486;32;19975;-76
2023/03/24 10:06:00;;;;;;;;;;;;;;;;;;4443710;32;19971;-75
2023/03/24 10:08:25;;;;;;;;;;;;;;;;;;4458529;32;20309;-78
2023/03/24 10:10:51;;;;;;;;;;;;;;;;;;4459647;32;19976;-77
2023/03/24 10:13:16;;;;;;;;;;;;;;;;;;4456830;32;19973;-78
2023/03/24 10:15:41;;;;;;;;;;;;;;;;;;4442395;32;19944;-72
2023/03/24 10:18:06;;;;;;;;;;;;;;;;;;4439103;32;19933;-80
2023/03/24 10:20:32;;;;;;;;;;;;;;;;;;4428682;32;19952;-78
2023/03/24 10:22:57;;;;;;;;;;;;;;;;;;4430631;32;20329;-78
2023/03/24 10:25:22;;;;;;;;;;;;;;;;;;4428247;32;19933;-76
2023/03/24 10:27:47;;;;;;;;;;;;;;;;;;4426240;32;19982;-79
2023/03/24 10:30:12;;;;;;;;;;;;;;;;;;4426673;32;19966;-78
2023/03/24 10:32:37;;;;;;;;;;;;;;;;;;4423069;32;19948;-76
2023/03/24 10:35:08;;;;;;;;;;;;;;;;;;4422226;32;20326;-77
2023/03/24 10:37:34;;;;;;;;;;;;;;;;;;4425031;32;19976;-76
2023/03/24 10:39:59;;;;;;;;;;;;;;;;;;4423664;32;20286;-76
2023/03/24 10:42:25;;;;;;;;;;;;;;;;;;4424015;32;20310;-77
2023/03/24 10:44:50;;;;;;;;;;;;;;;;;;4422050;32;19941;-75
2023/03/24 10:47:15;;;;;;;;;;;;;;;;;;4422706;32;19933;-76
2023/03/24 10:49:40;;;;;;;;;;;;;;;;;;4422681;32;19974;-77
2023/03/24 10:52:05;;;;;;;;;;;;;;;;;;4422299;32;19937;-77
2023/03/24 10:54:30;;;;;;;;;;;;;;;;;;4421731;32;19953;-78
2023/03/24 10:56:56;;;;;;;;;;;;;;;;;;4421974;32;19933;-74
2023/03/24 10:59:21;;;;;;;;;;;;;;;;;;4422570;32;19937;-76
2023/03/24 11:01:46;;;;;;;;;;;;;;;;;;4424130;32;19932;-78
2023/03/24 11:04:11;;;;;;;;;;;;;;;;;;4421058;32;19955;-75
2023/03/24 11:06:36;;;;;;;;;;;;;;;;;;4420174;32;19944;-77
2023/03/24 11:09:02;;;;;;;;;;;;;;;;;;4420536;32;19937;-77
2023/03/24 11:11:28;;;;;;;;;;;;;;;;;;4421146;32;19985;-76
2023/03/24 11:13:54;;;;;;;;;;;;;;;;;;4421777;32;19968;-76
2023/03/24 11:16:19;;;;;;;;;;;;;;;;;;4420214;32;19930;-74
2023/03/24 11:18:44;;;;;;;;;;;;;;;;;;4420388;32;20006;-77
2023/03/24 11:21:11;;;;;;;;;;;;;;;;;;4419940;32;20333;-78
2023/03/24 11:23:36;;;;;;;;;;;;;;;;;;4421707;32;19974;-76
2023/03/24 11:26:01;;;;;;;;;;;;;;;;;;4420137;32;19941;-77
2023/03/24 11:28:26;;;;;;;;;;;;;;;;;;4421171;32;20356;-78
2023/03/24 11:30:51;;;;;;;;;;;;;;;;;;4420343;32;19949;-77
2023/03/24 11:33:16;;;;;;;;;;;;;;;;;;4422225;32;19949;-78
2023/03/24 11:35:42;;;;;;;;;;;;;;;;;;4421388;32;19937;-78
2023/03/24 11:38:07;;;;;;;;;;;;;;;;;;4427164;32;19957;-77
2023/03/24 11:40:32;;;;;;;;;;;;;;;;;;4429421;32;19990;-77
2023/03/24 11:42:57;;;;;;;;;;;;;;;;;;4431252;32;19988;-79
2023/03/24 11:45:22;;;;;;;;;;;;;;;;;;4427400;32;19933;-78
2023/03/24 11:47:48;;;;;;;;;;;;;;;;;;4427289;32;20294;-80
2023/03/24 11:50:13;;;;;;;;;;;;;;;;;;4429149;32;19983;-76
2023/03/24 11:52:40;;;;;;;;;;;;;;;;;;4428359;32;19937;-77
2023/03/24 11:55:05;;;;;;;;;;;;;;;;;;4423873;32;19987;-78
2023/03/24 11:57:32;;;;;;;;;;;;;;;;;;4439877;32;19951;-78
2023/03/24 11:59:57;;;;;;;;;;;;;;;;;;4428067;32;19943;-76
2023/03/24 12:02:22;;;;;;;;;;;;;;;;;;4427737;32;19945;-77
2023/03/24 12:04:48;;;;;;;;;;;;;;;;;;4416082;32;20295;-79
2023/03/24 12:07:13;;;;;;;;;;;;;;;;;;4438596;32;19986;-77
2023/03/24 12:09:40;;;;;;;;;;;;;;;;;;4441321;32;19929;-78
2023/03/24 12:12:05;;;;;;;;;;;;;;;;;;4430399;32;19937;-80
2023/03/24 12:14:30;;;;;;;;;;;;;;;;;;4443851;32;20351;-78
2023/03/24 12:16:56;;;;;;;;;;;;;;;;;;4439376;32;19933;-78
2023/03/24 12:19:21;;;;;;;;;;;;;;;;;;4414418;32;19941;-76
2023/03/24 12:21:46;;;;;;;;;;;;;;;;;;4424356;32;19981;-80
2023/03/24 12:24:16;;;;;;;;;;;;;;;;;;4427355;32;19949;-79
2023/03/24 12:26:42;;;;;;;;;;;;;;;;;;4410654;32;20266;-80
2023/03/24 12:29:07;;;;;;;;;;;;;;;;;;4410202;32;19933;-78
2023/03/24 12:31:33;;;;;;;;;;;;;;;;;;4424286;32;20328;-79
2023/03/24 12:33:58;;;;;;;;;;;;;;;;;;4424586;32;19956;-78
2023/03/24 12:36:30;;;;;;;;;;;;;;;;;;4410284;32;19982;-80
2023/03/24 12:38:55;;;;;;;;;;;;;;;;;;4410840;32;19933;-74
2023/03/24 12:41:20;;;;;;;;;;;;;;;;;;4409600;32;19951;-76
2023/03/24 12:43:45;;;;;;;;;;;;;;;;;;4409899;32;20360;-78
2023/03/24 12:46:10;;;;;;;;;;;;;;;;;;4412157;32;19989;-77
2023/03/24 12:48:36;;;;;;;;;;;;;;;;;;4414317;32;19948;-79
2023/03/24 12:51:01;;;;;;;;;;;;;;;;;;4413680;32;19947;-79
2023/03/24 12:53:26;;;;;;;;;;;;;;;;;;4422144;32;19961;-78
2023/03/24 12:55:51;;;;;;;;;;;;;;;;;;4426184;32;19976;-76
2023/03/24 12:58:16;;;;;;;;;;;;;;;;;;4426565;32;20326;-78
2023/03/24 13:00:42;;;;;;;;;;;;;;;;;;4419959;32;19941;-78
2023/03/24 13:03:07;;;;;;;;;;;;;;;;;;4424142;32;19993;-78
2023/03/24 13:05:32;;;;;;;;;;;;;;;;;;4423851;32;19933;-77
2023/03/24 13:07:58;;;;;;;;;;;;;;;;;;4437840;32;19941;-78
2023/03/24 13:10:28;;;;;;;;;;;;;;;;;;4429861;32;20349;-79
2023/03/24 13:12:53;;;;;;;;;;;;;;;;;;4422573;32;19952;-76
2023/03/24 13:15:18;;;;;;;;;;;;;;;;;;4433905;32;19957;-78
2023/03/24 13:17:43;;;;;;;;;;;;;;;;;;4415260;32;19976;-77
2023/03/24 13:20:09;;;;;;;;;;;;;;;;;;4412376;32;19947;-80
2023/03/24 13:22:35;;;;;;;;;;;;;;;;;;4423887;32;20393;-77
2023/03/24 13:25:00;;;;;;;;;;;;;;;;;;4423267;32;19941;-75
2023/03/24 13:27:25;;;;;;;;;;;;;;;;;;4423216;32;19941;-77
2023/03/24 13:29:52;;;;;;;;;;;;;;;;;;4422025;32;19937;-78
2023/03/24 13:32:17;;;;;;;;;;;;;;;;;;4421554;32;19937;-77
2023/03/24 13:34:43;;;;;;;;;;;;;;;;;;4423637;32;20016;-79
2023/03/24 13:37:08;;;;;;;;;;;;;;;;;;4423749;32;19938;-75
2023/03/24 13:39:35;;;;;;;;;;;;;;;;;;4423674;32;19979;-78
2023/03/24 13:42:00;;;;;;;;;;;;;;;;;;4425115;32;19940;-80
2023/03/24 13:44:25;;;;;;;;;;;;;;;;;;4429879;32;20253;-74
2023/03/24 13:46:50;;;;;;;;;;;;;;;;;;4429886;32;19945;-79
2023/03/24 13:49:15;;;;;;;;;;;;;;;;;;4422245;32;20310;-75
2023/03/24 13:51:40;;;;;;;;;;;;;;;;;;4422320;32;19961;-79
2023/03/24 13:54:05;;;;;;;;;;;;;;;;;;4422167;32;20096;-78
2023/03/24 13:56:31;;;;;;;;;;;;;;;;;;4421128;32;20358;-79
2023/03/24 13:58:56;;;;;;;;;;;;;;;;;;4422044;32;19933;-78
2023/03/24 14:01:24;;;;;;;;;;;;;;;;;;4421048;32;19993;-80
2023/03/24 14:03:49;;;;;;;;;;;;;;;;;;4423443;32;19951;-77
2023/03/24 14:06:15;;;;;;;;;;;;;;;;;;4423375;32;19948;-79
2023/03/24 14:08:40;;;;;;;;;;;;;;;;;;4424479;32;19932;-79
2023/03/24 14:11:05;;;;;;;;;;;;;;;;;;4437357;32;19955;-79
2023/03/24 14:13:30;;;;;;;;;;;;;;;;;;4423798;32;19947;-77
2023/03/24 14:16:04;;;;;;;;;;;;;;;;;;4435011;32;19948;-78
2023/03/24 14:18:30;;;;;;;;;;;;;;;;;;4407664;32;19938;-79
2023/03/24 14:20:55;;;;;;;;;;;;;;;;;;4408464;32;20284;-78
2023/03/24 14:23:20;;;;;;;;;;;;;;;;;;4409259;32;19941;-75
2023/03/24 14:25:45;;;;;;;;;;;;;;;;;;4410586;32;20239;-79
2023/03/24 14:28:10;;;;;;;;;;;;;;;;;;4423995;32;19930;-80
2023/03/24 14:30:39;;;;;;;;;;;;;;;;;;4409145;32;19984;-77
2023/03/24 14:33:05;;;;;;;;;;;;;;;;;;4408726;32;19969;-81
2023/03/24 14:35:31;;;;;;;;;;;;;;;;;;4424552;32;19959;-77
2023/03/24 14:37:56;;;;;;;;;;;;;;;;;;4423560;32;19941;-79
2023/03/24 14:40:21;;;;;;;;;;;;;;;;;;4424327;32;19945;-75
2023/03/24 14:42:47;;;;;;;;;;;;;;;;;;4424277;32;19967;-80
2023/03/24 14:45:12;;;;;;;;;;;;;;;;;;4424247;32;19985;-78
2023/03/24 14:47:38;;;;;;;;;;;;;;;;;;4422728;32;19941;-77
2023/03/24 14:50:03;;;;;;;;;;;;;;;;;;4422798;32;20288;-81
2023/03/24 14:52:29;;;;;;;;;;;;;;;;;;4421388;32;20250;-81
2023/03/24 14:54:55;;;;;;;;;;;;;;;;;;4422138;32;19972;-79
2023/03/24 14:57:20;;;;;;;;;;;;;;;;;;4422359;32;19943;-79
2023/03/24 14:59:45;;;;;;;;;;;;;;;;;;4421852;32;19944;-77
2023/03/24 15:02:12;;;;;;;;;;;;;;;;;;4422170;32;20330;-81
2023/03/24 15:04:38;;;;;;;;;;;;;;;;;;4421068;32;19963;-82
2023/03/24 15:07:04;;;;;;;;;;;;;;;;;;4420480;32;19941;-79
2023/03/24 15:09:29;;;;;;;;;;;;;;;;;;4422255;32;19953;-85
2023/03/24 15:11:55;;;;;;;;;;;;;;;;;;4421212;32;20013;-79
2023/03/24 15:14:21;;;;;;;;;;;;;;;;;;4420650;32;19948;-80
2023/03/24 15:16:47;;;;;;;;;;;;;;;;;;4422833;32;20245;-77
2023/03/24 15:19:12;;;;;;;;;;;;;;;;;;4422952;32;19973;-79
2023/03/24 15:21:37;;;;;;;;;;;;;;;;;;4437076;32;19941;-78
2023/03/24 15:24:02;;;;;;;;;;;;;;;;;;4418511;32;19977;-79
2023/03/24 15:26:28;;;;;;;;;;;;;;;;;;4416801;32;19945;-79
2023/03/24 15:28:53;;;;;;;;;;;;;;;;;;4414509;32;20256;-78
2023/03/24 15:31:21;;;;;;;;;;;;;;;;;;4437489;32;19937;-79
2023/03/24 15:33:46;;;;;;;;;;;;;;;;;;4423224;32;20053;-78
2023/03/24 15:36:11;;;;;;;;;;;;;;;;;;4423749;32;19944;-79
2023/03/24 15:38:37;;;;;;;;;;;;;;;;;;4417455;32;19941;-77
2023/03/24 15:41:02;;;;;;;;;;;;;;;;;;4407495;32;19941;-80
2023/03/24 15:43:27;;;;;;;;;;;;;;;;;;4407087;32;19967;-80
2023/03/24 15:45:52;;;;;;;;;;;;;;;;;;4421880;32;20312;-78
2023/03/24 15:48:18;;;;;;;;;;;;;;;;;;4423170;32;19937;-78
2023/03/24 15:50:43;;;;;;;;;;;;;;;;;;4423794;32;19940;-77
2023/03/24 15:53:08;;;;;;;;;;;;;;;;;;4441013;32;19940;-79
2023/03/24 15:55:36;;;;;;;;;;;;;;;;;;4422329;32;20067;-78
2023/03/24 15:58:01;;;;;;;;;;;;;;;;;;4424891;32;19932;-79
2023/03/24 16:00:26;;;;;;;;;;;;;;;;;;4427318;32;19981;-79
2023/03/24 16:02:52;;;;;;;;;;;;;;;;;;4422324;32;19951;-80
2023/03/24 16:05:18;;;;;;;;;;;;;;;;;;4423060;32;20231;-77
2023/03/24 16:07:43;;;;;;;;;;;;;;;;;;4434320;32;19957;-78
2023/03/24 16:10:08;;;;;;;;;;;;;;;;;;4424318;32;19975;-77
2023/03/24 16:12:33;;;;;;;;;;;;;;;;;;4426989;32;19998;-78
2023/03/24 16:14:59;;;;;;;;;;;;;;;;;;4430095;32;20215;-78
2023/03/24 16:17:24;;;;;;;;;;;;;;;;;;4420200;32;19996;-78
2023/03/24 16:19:49;;;;;;;;;;;;;;;;;;4407058;32;19960;-78
2023/03/24 16:22:14;;;;;;;;;;;;;;;;;;4417105;32;20311;-79
2023/03/24 16:24:40;;;;;;;;;;;;;;;;;;4411355;32;19948;-79
2023/03/24 16:27:05;;;;;;;;;;;;;;;;;;4412173;32;19941;-79
2023/03/24 16:29:30;;;;;;;;;;;;;;;;;;4422000;32;19969;-77
2023/03/24 16:31:55;;;;;;;;;;;;;;;;;;4421829;32;19952;-79
2023/03/24 16:34:20;;;;;;;;;;;;;;;;;;4435886;32;19960;-80